createdAt,value
2016-09-06T00:01:20.730Z,962.34
2016-09-06T00:01:58.068Z,962.35
2016-09-06T00:02:41.606Z,962.37
2016-09-06T00:03:44.617Z,962.39
2016-09-06T00:04:51.759Z,962.38
2016-09-06T00:05:42.212Z,962.40
2016-09-06T00:06:48.090Z,962.43
2016-09-06T00:08:02.945Z,962.39
2016-09-06T00:08:51.219Z,962.40
2016-09-06T00:09:34.829Z,962.39
2016-09-06T00:10:49.572Z,962.35
2016-09-06T00:11:43.076Z,962.36
2016-09-06T00:12:41.209Z,962.37
2016-09-06T00:13:43.492Z,962.37
2016-09-06T00:14:50.018Z,962.33
2016-09-06T00:16:04.537Z,962.36
2016-09-06T00:16:43.096Z,962.35
2016-09-06T00:17:51.744Z,962.32
2016-09-06T00:18:47.586Z,962.32
2016-09-06T00:19:49.740Z,962.34
2016-09-06T00:20:45.679Z,962.33
2016-09-06T00:21:50.249Z,962.31
2016-09-06T00:22:39.520Z,962.35
2016-09-06T00:23:39.068Z,962.34
2016-09-06T00:24:40.188Z,962.29
2016-09-06T00:25:43.452Z,962.30
2016-09-06T00:26:44.530Z,962.33
2016-09-06T00:27:49.726Z,962.38
2016-09-06T00:28:38.863Z,962.36
2016-09-06T00:29:43.105Z,962.36
2016-09-06T00:30:40.894Z,962.36
2016-09-06T00:31:54.893Z,962.37
2016-09-06T00:32:49.409Z,962.37
2016-09-06T00:33:50.270Z,962.38
2016-09-06T00:34:39.860Z,962.41
2016-09-06T00:35:40.711Z,962.45
2016-09-06T00:36:45.876Z,962.43
2016-09-06T00:37:51.842Z,962.43
2016-09-06T00:38:51.614Z,962.39
2016-09-06T00:39:40.456Z,962.45
2016-09-06T00:40:49.777Z,962.43
2016-09-06T00:41:50.145Z,962.46
2016-09-06T00:42:34.378Z,962.45
2016-09-06T00:43:39.133Z,962.47
2016-09-06T00:44:48.588Z,962.50
2016-09-06T00:45:28.715Z,962.55
2016-09-06T00:46:39.765Z,962.56
2016-09-06T00:47:47.955Z,962.56
2016-09-06T00:48:54.637Z,962.61
2016-09-06T00:49:44.582Z,962.61
2016-09-06T00:50:38.330Z,962.61
2016-09-06T00:51:39.412Z,962.65
2016-09-06T00:52:43.967Z,962.71
2016-09-06T00:53:40.947Z,962.66
2016-09-06T00:54:40.410Z,962.63
2016-09-06T00:55:42.986Z,962.65
2016-09-06T00:56:35.135Z,962.60
2016-09-06T00:57:33.700Z,962.64
2016-09-06T00:58:14.205Z,962.61
2016-09-06T00:59:49.364Z,962.62
2016-09-06T01:00:38.705Z,962.59
2016-09-06T01:01:48.802Z,962.56
2016-09-06T01:02:49.862Z,962.54
2016-09-06T01:03:49.710Z,962.55
2016-09-06T01:04:54.650Z,962.53
2016-09-06T01:05:39.361Z,962.49
2016-09-06T01:06:37.509Z,962.47
2016-09-06T01:07:48.007Z,962.46
2016-09-06T01:08:50.250Z,962.47
2016-09-06T01:10:04.075Z,962.49
2016-09-06T01:10:52.134Z,962.46
2016-09-06T01:12:02.719Z,962.47
2016-09-06T01:12:51.350Z,962.47
2016-09-06T01:13:34.542Z,962.46
2016-09-06T01:15:00.232Z,962.50
2016-09-06T01:15:55.688Z,962.47
2016-09-06T01:16:36.476Z,962.48
2016-09-06T01:17:45.431Z,962.45
2016-09-06T01:18:49.542Z,962.43
2016-09-06T01:19:55.423Z,962.42
2016-09-06T01:20:37.857Z,962.41
2016-09-06T01:21:49.909Z,962.43
2016-09-06T01:22:56.111Z,962.42
2016-09-06T01:23:48.782Z,962.45
2016-09-06T01:24:40.039Z,962.46
2016-09-06T01:25:41.378Z,962.52
2016-09-06T01:26:34.740Z,962.49
2016-09-06T01:27:39.962Z,962.52
2016-09-06T01:28:50.178Z,962.50
2016-09-06T01:29:34.230Z,962.52
2016-09-06T01:30:48.665Z,962.52
2016-09-06T01:31:40.249Z,962.58
2016-09-06T01:32:50.483Z,962.57
2016-09-06T01:33:40.308Z,962.59
2016-09-06T01:34:54.300Z,962.55
2016-09-06T01:35:47.766Z,962.60
2016-09-06T01:36:49.864Z,962.55
2016-09-06T01:37:49.863Z,962.58
2016-09-06T01:38:41.998Z,962.55
2016-09-06T01:39:40.218Z,962.53
2016-09-06T01:40:49.877Z,962.57
2016-09-06T01:41:38.850Z,962.55
2016-09-06T01:42:44.129Z,962.54
2016-09-06T01:43:42.388Z,962.55
2016-09-06T01:44:13.741Z,962.60
2016-09-06T01:45:53.949Z,962.58
2016-09-06T01:46:43.586Z,962.59
2016-09-06T01:47:49.397Z,962.57
2016-09-06T01:48:47.365Z,962.57
2016-09-06T01:49:49.529Z,962.59
2016-09-06T01:50:49.987Z,962.63
2016-09-06T01:51:40.240Z,962.61
2016-09-06T01:52:41.320Z,962.63
2016-09-06T01:53:51.542Z,962.64
2016-09-06T01:54:43.591Z,962.64
2016-09-06T01:55:40.071Z,962.68
2016-09-06T01:57:06.379Z,962.64
2016-09-06T01:57:40.128Z,962.67
2016-09-06T01:58:40.724Z,962.69
2016-09-06T01:59:36.306Z,962.69
2016-09-06T02:00:49.783Z,962.68
2016-09-06T02:01:45.017Z,962.68
2016-09-06T02:02:50.317Z,962.74
2016-09-06T02:03:44.607Z,962.70
2016-09-06T02:04:50.258Z,962.72
2016-09-06T02:05:35.412Z,962.72
2016-09-06T02:06:37.855Z,962.73
2016-09-06T02:07:38.759Z,962.73
2016-09-06T02:08:39.699Z,962.71
2016-09-06T02:09:45.930Z,962.72
2016-09-06T02:10:38.991Z,962.72
2016-09-06T02:11:46.251Z,962.67
2016-09-06T02:12:33.538Z,962.71
2016-09-06T02:13:33.927Z,962.69
2016-09-06T02:14:39.738Z,962.70
2016-09-06T02:15:40.809Z,962.67
2016-09-06T02:16:46.423Z,962.71
2016-09-06T02:17:38.630Z,962.75
2016-09-06T02:18:57.107Z,962.71
2016-09-06T02:19:52.875Z,962.70
2016-09-06T02:20:43.357Z,962.69
2016-09-06T02:21:50.110Z,962.68
2016-09-06T02:22:39.547Z,962.63
2016-09-06T02:23:44.669Z,962.63
2016-09-06T02:24:45.944Z,962.63
2016-09-06T02:25:44.005Z,962.62
2016-09-06T02:26:37.683Z,962.64
2016-09-06T02:27:13.956Z,962.69
2016-09-06T02:28:33.777Z,962.66
2016-09-06T02:29:37.615Z,962.68
2016-09-06T02:30:47.342Z,962.68
2016-09-06T02:31:48.032Z,962.68
2016-09-06T02:32:39.452Z,962.67
2016-09-06T02:33:40.773Z,962.72
2016-09-06T02:34:49.639Z,962.71
2016-09-06T02:35:40.007Z,962.73
2016-09-06T02:36:39.442Z,962.72
2016-09-06T02:37:45.819Z,962.71
2016-09-06T02:38:45.462Z,962.73
2016-09-06T02:39:48.530Z,962.76
2016-09-06T02:40:37.440Z,962.73
2016-09-06T02:41:45.361Z,962.76
2016-09-06T02:42:50.171Z,962.75
2016-09-06T02:43:40.865Z,962.72
2016-09-06T02:44:41.017Z,962.69
2016-09-06T02:45:39.063Z,962.72
2016-09-06T02:46:35.154Z,962.72
2016-09-06T02:47:54.299Z,962.67
2016-09-06T02:48:49.567Z,962.68
2016-09-06T02:49:45.906Z,962.70
2016-09-06T02:50:50.309Z,962.71
2016-09-06T02:51:40.053Z,962.69
2016-09-06T02:52:39.150Z,962.71
2016-09-06T02:53:40.394Z,962.66
2016-09-06T02:54:49.235Z,962.70
2016-09-06T02:55:46.565Z,962.64
2016-09-06T02:56:45.606Z,962.63
2016-09-06T02:57:50.366Z,962.66
2016-09-06T02:58:49.834Z,962.66
2016-09-06T02:59:49.096Z,962.68
2016-09-06T03:00:40.814Z,962.64
2016-09-06T03:01:49.912Z,962.63
2016-09-06T03:02:55.198Z,962.62
2016-09-06T03:03:38.225Z,962.66
2016-09-06T03:04:38.839Z,962.66
2016-09-06T03:05:50.242Z,962.66
2016-09-06T03:06:41.532Z,962.69
2016-09-06T03:07:49.553Z,962.64
2016-09-06T03:08:50.733Z,962.70
2016-09-06T03:09:44.857Z,962.66
2016-09-06T03:10:49.930Z,962.70
2016-09-06T03:11:45.308Z,962.73
2016-09-06T03:12:32.626Z,962.73
2016-09-06T03:13:54.811Z,962.74
2016-09-06T03:14:39.141Z,962.80
2016-09-06T03:15:34.859Z,962.78
2016-09-06T03:16:34.660Z,962.76
2016-09-06T03:17:49.259Z,962.76
2016-09-06T03:18:51.580Z,962.76
2016-09-06T03:19:54.341Z,962.73
2016-09-06T03:20:38.319Z,962.72
2016-09-06T03:21:40.265Z,962.73
2016-09-06T03:22:54.868Z,962.74
2016-09-06T03:23:55.531Z,962.75
2016-09-06T03:24:54.897Z,962.74
2016-09-06T03:25:39.086Z,962.74
2016-09-06T03:26:45.388Z,962.72
2016-09-06T03:27:49.045Z,962.75
2016-09-06T03:28:39.711Z,962.77
2016-09-06T03:29:51.851Z,962.75
2016-09-06T03:30:40.053Z,962.77
2016-09-06T03:31:39.897Z,962.75
2016-09-06T03:32:50.110Z,962.71
2016-09-06T03:33:39.729Z,962.77
2016-09-06T03:34:45.480Z,962.78
2016-09-06T03:35:34.569Z,962.76
2016-09-06T03:36:55.428Z,962.80
2016-09-06T03:37:48.427Z,962.76
2016-09-06T03:38:40.575Z,962.78
2016-09-06T03:39:50.346Z,962.82
2016-09-06T03:40:41.711Z,962.77
2016-09-06T03:41:39.932Z,962.78
2016-09-06T03:42:40.103Z,962.76
2016-09-06T03:43:50.182Z,962.78
2016-09-06T03:44:40.096Z,962.76
2016-09-06T03:45:51.372Z,962.73
2016-09-06T03:46:39.608Z,962.75
2016-09-06T03:47:51.502Z,962.78
2016-09-06T03:48:50.495Z,962.77
2016-09-06T03:49:41.133Z,962.81
2016-09-06T03:50:45.916Z,962.80
2016-09-06T03:51:55.637Z,962.79
2016-09-06T03:52:39.862Z,962.79
2016-09-06T03:53:40.853Z,962.81
2016-09-06T03:54:44.685Z,962.83
2016-09-06T03:55:45.644Z,962.80
2016-09-06T03:56:49.771Z,962.79
2016-09-06T03:57:53.162Z,962.75
2016-09-06T03:58:49.820Z,962.74
2016-09-06T03:59:40.405Z,962.72
2016-09-06T04:00:40.118Z,962.74
2016-09-06T04:01:40.479Z,962.75
2016-09-06T04:02:38.662Z,962.72
2016-09-06T04:04:16.239Z,962.77
2016-09-06T04:04:54.599Z,962.75
2016-09-06T04:05:49.842Z,962.75
2016-09-06T04:06:38.961Z,962.72
2016-09-06T04:07:40.898Z,962.77
2016-09-06T04:08:35.252Z,962.75
2016-09-06T04:09:39.111Z,962.75
2016-09-06T04:10:54.411Z,962.77
2016-09-06T04:11:46.433Z,962.75
2016-09-06T04:12:55.348Z,962.74
2016-09-06T04:13:49.144Z,962.74
2016-09-06T04:14:34.309Z,962.74
2016-09-06T04:15:39.793Z,962.76
2016-09-06T04:16:48.922Z,962.80
2016-09-06T04:17:51.942Z,962.81
2016-09-06T04:18:58.962Z,962.80
2016-09-06T04:19:44.005Z,962.84
2016-09-06T04:20:40.576Z,962.86
2016-09-06T04:21:40.246Z,962.87
2016-09-06T04:22:40.660Z,962.89
2016-09-06T04:23:40.118Z,962.85
2016-09-06T04:24:49.392Z,962.91
2016-09-06T04:25:55.593Z,962.92
2016-09-06T04:26:39.729Z,962.93
2016-09-06T04:27:50.041Z,962.97
2016-09-06T04:29:05.192Z,962.93
2016-09-06T04:29:54.676Z,963.02
2016-09-06T04:30:48.079Z,963.03
2016-09-06T04:31:40.501Z,962.97
2016-09-06T04:32:39.490Z,962.97
2016-09-06T04:33:50.361Z,963.01
2016-09-06T04:34:53.135Z,962.97
2016-09-06T04:35:47.521Z,963.01
2016-09-06T04:36:40.742Z,962.96
2016-09-06T04:37:44.443Z,962.99
2016-09-06T04:39:00.188Z,963.03
2016-09-06T04:39:54.746Z,962.97
2016-09-06T04:40:55.664Z,963.00
2016-09-06T04:41:49.515Z,963.04
2016-09-06T04:42:38.627Z,963.10
2016-09-06T04:43:40.200Z,963.08
2016-09-06T04:44:49.738Z,963.11
2016-09-06T04:45:48.149Z,963.14
2016-09-06T04:46:41.449Z,963.17
2016-09-06T04:47:50.095Z,963.15
2016-09-06T04:48:54.504Z,963.17
2016-09-06T04:49:49.587Z,963.19
2016-09-06T04:50:50.531Z,963.17
2016-09-06T04:51:46.297Z,963.15
2016-09-06T04:52:45.599Z,963.16
2016-09-06T04:53:46.195Z,963.15
2016-09-06T04:54:40.074Z,963.16
2016-09-06T04:55:41.603Z,963.17
2016-09-06T04:56:40.550Z,963.19
2016-09-06T04:57:39.715Z,963.19
2016-09-06T04:58:48.552Z,963.18
2016-09-06T04:59:50.845Z,963.18
2016-09-06T05:00:54.918Z,963.17
2016-09-06T05:01:49.062Z,963.17
2016-09-06T05:02:51.548Z,963.19
2016-09-06T05:03:41.126Z,963.19
2016-09-06T05:04:43.221Z,963.24
2016-09-06T05:05:37.248Z,963.23
2016-09-06T05:06:50.033Z,963.28
2016-09-06T05:07:16.394Z,963.32
2016-09-06T05:08:50.206Z,963.28
2016-09-06T05:09:40.447Z,963.32
2016-09-06T05:10:39.171Z,963.28
2016-09-06T05:11:45.038Z,963.30
2016-09-06T05:12:40.609Z,963.32
2016-09-06T05:13:41.129Z,963.34
2016-09-06T05:14:38.834Z,963.32
2016-09-06T05:15:44.900Z,963.39
2016-09-06T05:16:40.703Z,963.37
2016-09-06T05:17:39.997Z,963.33
2016-09-06T05:18:40.426Z,963.37
2016-09-06T05:19:49.771Z,963.39
2016-09-06T05:20:49.886Z,963.37
2016-09-06T05:21:49.980Z,963.36
2016-09-06T05:22:54.655Z,963.36
2016-09-06T05:23:50.052Z,963.40
2016-09-06T05:24:55.185Z,963.35
2016-09-06T05:25:39.130Z,963.37
2016-09-06T05:26:40.273Z,963.35
2016-09-06T05:27:55.160Z,963.38
2016-09-06T05:28:48.903Z,963.36
2016-09-06T05:29:40.257Z,963.37
2016-09-06T05:30:49.600Z,963.39
2016-09-06T05:31:40.092Z,963.39
2016-09-06T05:33:03.292Z,963.43
2016-09-06T05:33:37.720Z,963.42
2016-09-06T05:34:53.095Z,963.48
2016-09-06T05:35:39.383Z,963.42
2016-09-06T05:36:45.659Z,963.45
2016-09-06T05:37:40.113Z,963.50
2016-09-06T05:38:49.365Z,963.53
2016-09-06T05:39:43.971Z,963.53
2016-09-06T05:40:41.404Z,963.50
2016-09-06T05:41:55.753Z,963.58
2016-09-06T05:42:51.404Z,963.55
2016-09-06T05:43:39.753Z,963.58
2016-09-06T05:44:55.183Z,963.58
2016-09-06T05:45:55.021Z,963.61
2016-09-06T05:46:53.612Z,963.58
2016-09-06T05:47:38.957Z,963.60
2016-09-06T05:48:55.514Z,963.58
2016-09-06T05:49:40.339Z,963.63
2016-09-06T05:50:40.652Z,963.62
2016-09-06T05:51:50.151Z,963.61
2016-09-06T05:52:46.475Z,963.59
2016-09-06T05:53:50.245Z,963.60
2016-09-06T05:54:38.987Z,963.63
2016-09-06T05:55:39.852Z,963.63
2016-09-06T05:56:39.414Z,963.66
2016-09-06T05:58:00.674Z,963.64
2016-09-06T05:58:55.204Z,963.62
2016-09-06T05:59:48.368Z,963.62
2016-09-06T06:00:55.925Z,963.63
2016-09-06T06:01:39.977Z,963.60
2016-09-06T06:02:50.492Z,963.61
2016-09-06T06:03:40.669Z,963.61
2016-09-06T06:04:55.289Z,963.63
2016-09-06T06:05:48.900Z,963.60
2016-09-06T06:06:39.158Z,963.64
2016-09-06T06:07:40.487Z,963.59
2016-09-06T06:08:39.227Z,963.62
2016-09-06T06:09:41.472Z,963.61
2016-09-06T06:10:54.435Z,963.63
2016-09-06T06:11:39.375Z,963.61
2016-09-06T06:12:51.729Z,963.66
2016-09-06T06:13:47.118Z,963.62
2016-09-06T06:14:49.062Z,963.64
2016-09-06T06:15:41.063Z,963.65
2016-09-06T06:16:40.731Z,963.65
2016-09-06T06:17:39.307Z,963.66
2016-09-06T06:18:50.023Z,963.61
2016-09-06T06:19:34.572Z,963.63
2016-09-06T06:20:49.963Z,963.62
2016-09-06T06:21:51.562Z,963.63
2016-09-06T06:22:51.418Z,963.63
2016-09-06T06:23:42.589Z,963.66
2016-09-06T06:24:38.885Z,963.67
2016-09-06T06:25:40.171Z,963.71
2016-09-06T06:26:49.870Z,963.68
2016-09-06T06:27:38.980Z,963.69
2016-09-06T06:28:35.521Z,963.66
2016-09-06T06:29:38.890Z,963.72
2016-09-06T06:30:39.496Z,963.70
2016-09-06T06:31:33.824Z,963.75
2016-09-06T06:32:56.771Z,963.76
2016-09-06T06:33:47.568Z,963.79
2016-09-06T06:34:48.781Z,963.82
2016-09-06T06:35:39.390Z,963.78
2016-09-06T06:36:40.198Z,963.82
2016-09-06T06:37:39.062Z,963.81
2016-09-06T06:38:40.260Z,963.81
2016-09-06T06:39:54.568Z,963.81
2016-09-06T06:40:38.775Z,963.79
2016-09-06T06:41:38.584Z,963.85
2016-09-06T06:42:38.815Z,963.81
2016-09-06T06:43:44.906Z,963.82
2016-09-06T06:44:35.398Z,963.77
2016-09-06T06:45:48.663Z,963.78
2016-09-06T06:46:39.529Z,963.80
2016-09-06T06:47:50.932Z,963.82
2016-09-06T06:48:39.985Z,963.76
2016-09-06T06:49:44.502Z,963.75
2016-09-06T06:50:42.653Z,963.77
2016-09-06T06:51:39.171Z,963.75
2016-09-06T06:52:39.343Z,963.75
2016-09-06T06:53:52.125Z,963.72
2016-09-06T06:54:41.989Z,963.73
2016-09-06T06:55:35.032Z,963.77
2016-09-06T06:56:50.289Z,963.74
2016-09-06T06:57:40.108Z,963.75
2016-09-06T06:59:17.239Z,963.77
2016-09-06T06:59:48.562Z,963.77
2016-09-06T07:00:40.479Z,963.79
2016-09-06T07:01:39.475Z,963.77
2016-09-06T07:02:49.561Z,963.77
2016-09-06T07:03:41.368Z,963.72
2016-09-06T07:04:50.314Z,963.75
2016-09-06T07:05:49.788Z,963.77
2016-09-06T07:06:51.604Z,963.76
2016-09-06T07:07:41.502Z,963.73
2016-09-06T07:08:40.517Z,963.73
2016-09-06T07:09:45.135Z,963.75
2016-09-06T07:10:40.071Z,963.76
2016-09-06T07:13:39.102Z,963.75
2016-09-06T07:14:41.062Z,963.74
2016-09-06T07:15:45.553Z,963.76
2016-09-06T07:16:40.082Z,963.74
2016-09-06T07:17:57.554Z,963.76
2016-09-06T07:18:53.894Z,963.79
2016-09-06T07:19:51.644Z,963.81
2016-09-06T07:20:49.137Z,963.80
2016-09-06T07:21:35.369Z,963.83
2016-09-06T07:22:35.583Z,963.84
2016-09-06T07:23:51.625Z,963.83
2016-09-06T07:24:34.284Z,963.90
2016-09-06T07:25:27.791Z,963.88
2016-09-06T07:26:34.187Z,963.90
2016-09-06T07:27:41.078Z,963.85
2016-09-06T07:28:47.371Z,963.90
2016-09-06T07:29:25.337Z,963.89
2016-09-06T07:30:50.711Z,963.90
2016-09-06T07:31:50.615Z,963.95
2016-09-06T07:32:54.464Z,963.92
2016-09-06T07:33:49.706Z,963.94
2016-09-06T07:34:51.170Z,963.97
2016-09-06T07:35:40.400Z,963.98
2016-09-06T07:36:38.720Z,963.98
2016-09-06T07:37:55.453Z,964.01
2016-09-06T07:38:50.157Z,963.97
2016-09-06T07:39:51.662Z,964.04
2016-09-06T07:40:40.646Z,964.02
2016-09-06T07:41:40.408Z,964.04
2016-09-06T07:42:40.753Z,964.03
2016-09-06T07:43:51.639Z,964.03
2016-09-06T07:44:50.406Z,964.03
2016-09-06T07:45:40.721Z,964.03
2016-09-06T07:46:39.812Z,964.01
2016-09-06T07:47:40.506Z,964.01
2016-09-06T07:48:38.465Z,964.01
2016-09-06T07:49:12.542Z,963.97
2016-09-06T07:50:54.693Z,964.01
2016-09-06T07:51:54.679Z,963.99
2016-09-06T07:52:49.294Z,963.99
2016-09-06T07:53:50.456Z,963.96
2016-09-06T07:54:40.655Z,963.98
2016-09-06T07:55:43.115Z,964.00
2016-09-06T07:56:41.032Z,963.98
2016-09-06T07:57:39.191Z,963.96
2016-09-06T07:58:50.208Z,963.98
2016-09-06T07:59:49.702Z,963.99
2016-09-06T08:00:55.704Z,963.98
2016-09-06T08:01:38.075Z,963.99
2016-09-06T08:02:45.181Z,963.98
2016-09-06T08:03:32.083Z,963.99
2016-09-06T08:04:18.625Z,964.00
2016-09-06T08:05:14.485Z,963.99
2016-09-06T08:06:51.560Z,963.99
2016-09-06T08:07:44.397Z,964.00
2016-09-06T08:09:00.985Z,964.02
2016-09-06T08:09:49.569Z,964.00
2016-09-06T08:10:39.578Z,964.02
2016-09-06T08:11:38.028Z,963.99
2016-09-06T08:12:48.311Z,964.01
2016-09-06T08:13:33.419Z,964.03
2016-09-06T08:14:40.522Z,964.03
2016-09-06T08:15:40.446Z,964.04
2016-09-06T08:16:46.267Z,964.05
2016-09-06T08:17:49.585Z,964.02
2016-09-06T08:18:50.751Z,963.98
2016-09-06T08:19:50.391Z,964.02
2016-09-06T08:21:01.618Z,963.96
2016-09-06T08:21:40.198Z,964.01
2016-09-06T08:22:39.116Z,963.97
2016-09-06T08:23:37.684Z,963.99
2016-09-06T08:24:35.793Z,964.03
2016-09-06T08:25:39.381Z,964.00
2016-09-06T08:26:38.812Z,964.00
2016-09-06T08:27:39.595Z,964.02
2016-09-06T08:28:38.014Z,963.98
2016-09-06T08:29:33.918Z,964.01
2016-09-06T08:30:32.755Z,963.99
2016-09-06T08:31:48.768Z,964.03
2016-09-06T08:32:16.283Z,964.03
2016-09-06T08:33:50.058Z,964.02
2016-09-06T08:34:54.967Z,964.03
2016-09-06T08:35:49.373Z,964.06
2016-09-06T08:36:55.334Z,964.02
2016-09-06T08:37:50.344Z,964.06
2016-09-06T08:38:39.709Z,964.05
2016-09-06T08:39:40.456Z,964.06
2016-09-06T08:40:50.160Z,964.13
2016-09-06T08:41:44.000Z,964.12
2016-09-06T08:42:38.634Z,964.11
2016-09-06T08:43:53.880Z,964.11
2016-09-06T08:44:58.062Z,964.12
2016-09-06T08:45:53.751Z,964.11
2016-09-06T08:46:45.754Z,964.08
2016-09-06T08:47:40.210Z,964.12
2016-09-06T08:48:40.071Z,964.11
2016-09-06T08:49:39.714Z,964.13
2016-09-06T08:50:54.220Z,964.13
2016-09-06T08:51:39.055Z,964.13
2016-09-06T08:52:50.429Z,964.10
2016-09-06T08:53:40.491Z,964.10
2016-09-06T08:54:52.000Z,964.11
2016-09-06T08:55:39.531Z,964.09
2016-09-06T08:56:55.294Z,964.11
2016-09-06T08:57:32.589Z,964.09
2016-09-06T08:58:39.490Z,964.11
2016-09-06T08:59:40.652Z,964.12
2016-09-06T09:00:39.577Z,964.10
2016-09-06T09:01:40.515Z,964.09
2016-09-06T09:02:34.699Z,964.13
2016-09-06T09:03:49.750Z,964.15
2016-09-06T09:04:40.239Z,964.16
2016-09-06T09:05:49.326Z,964.11
2016-09-06T09:06:44.189Z,964.14
2016-09-06T09:07:48.905Z,964.11
2016-09-06T09:09:04.492Z,964.08
2016-09-06T09:09:48.043Z,964.11
2016-09-06T09:10:51.729Z,964.10
2016-09-06T09:11:47.288Z,964.08
2016-09-06T09:12:50.220Z,964.09
2016-09-06T09:13:44.933Z,964.10
2016-09-06T09:14:41.385Z,964.13
2016-09-06T09:16:40.719Z,964.14
2016-09-06T09:17:49.377Z,964.11
2016-09-06T09:18:40.822Z,964.12
2016-09-06T09:19:49.229Z,964.11
2016-09-06T09:20:44.533Z,964.12
2016-09-06T09:21:48.907Z,964.11
2016-09-06T09:22:40.984Z,964.08
2016-09-06T09:23:55.486Z,964.10
2016-09-06T09:24:59.114Z,964.10
2016-09-06T09:25:55.683Z,964.12
2016-09-06T09:26:54.225Z,964.13
2016-09-06T09:27:59.476Z,964.13
2016-09-06T09:28:53.965Z,964.14
2016-09-06T09:29:54.950Z,964.20
2016-09-06T09:30:50.608Z,964.23
2016-09-06T09:31:50.522Z,964.24
2016-09-06T09:32:35.822Z,964.26
2016-09-06T09:33:49.808Z,964.25
2016-09-06T09:34:35.024Z,964.25
2016-09-06T09:35:44.321Z,964.28
2016-09-06T09:36:55.354Z,964.25
2016-09-06T09:37:50.348Z,964.20
2016-09-06T09:38:49.839Z,964.16
2016-09-06T09:39:50.416Z,964.20
2016-09-06T09:41:01.595Z,964.16
2016-09-06T09:42:05.470Z,964.13
2016-09-06T09:42:59.496Z,964.06
2016-09-06T09:43:48.704Z,964.07
2016-09-06T09:44:45.553Z,964.03
2016-09-06T09:45:35.204Z,964.04
2016-09-06T09:46:41.508Z,964.07
2016-09-06T09:47:37.111Z,964.07
2016-09-06T09:48:39.410Z,964.06
2016-09-06T09:49:40.511Z,964.09
2016-09-06T09:50:39.848Z,964.05
2016-09-06T09:51:48.773Z,964.08
2016-09-06T09:52:47.368Z,964.04
2016-09-06T09:53:39.382Z,964.05
2016-09-06T09:54:48.291Z,964.04
2016-09-06T09:55:37.957Z,964.04
2016-09-06T09:56:44.373Z,964.04
2016-09-06T09:57:49.567Z,964.01
2016-09-06T09:58:51.312Z,964.02
2016-09-06T09:59:50.325Z,964.06
2016-09-06T10:00:39.851Z,964.01
2016-09-06T10:01:40.822Z,964.05
2016-09-06T10:03:03.669Z,964.06
2016-09-06T10:03:41.468Z,964.05
2016-09-06T10:04:39.774Z,964.04
2016-09-06T10:05:40.723Z,964.04
2016-09-06T10:06:56.402Z,964.04
2016-09-06T10:07:50.471Z,964.06
2016-09-06T10:08:45.195Z,964.06
2016-09-06T10:09:50.301Z,964.04
2016-09-06T10:10:42.908Z,964.07
2016-09-06T10:11:40.616Z,964.05
2016-09-06T10:12:44.639Z,964.04
2016-09-06T10:13:44.410Z,964.00
2016-09-06T10:14:43.497Z,964.01
2016-09-06T10:15:40.471Z,964.01
2016-09-06T10:16:48.561Z,964.00
2016-09-06T10:17:55.513Z,964.00
2016-09-06T10:19:17.580Z,964.05
2016-09-06T10:19:40.662Z,964.02
2016-09-06T10:20:50.912Z,964.02
2016-09-06T10:21:49.727Z,964.00
2016-09-06T10:22:50.634Z,964.02
2016-09-06T10:23:41.444Z,963.99
2016-09-06T10:24:23.654Z,964.00
2016-09-06T10:25:55.049Z,963.97
2016-09-06T10:26:54.191Z,963.98
2016-09-06T10:27:38.590Z,964.01
2016-09-06T10:28:36.781Z,963.97
2016-09-06T10:29:40.152Z,963.96
2016-09-06T10:30:33.463Z,963.97
2016-09-06T10:31:15.424Z,964.00
2016-09-06T10:32:19.549Z,963.96
2016-09-06T10:33:43.563Z,963.94
2016-09-06T10:34:40.626Z,963.92
2016-09-06T10:35:49.690Z,963.93
2016-09-06T10:36:51.941Z,963.91
2016-09-06T10:37:40.027Z,963.89
2016-09-06T10:38:39.367Z,963.89
2016-09-06T10:39:47.310Z,963.87
2016-09-06T10:40:40.355Z,963.85
2016-09-06T10:41:40.977Z,963.87
2016-09-06T10:42:51.563Z,963.87
2016-09-06T10:43:45.674Z,963.85
2016-09-06T10:44:40.485Z,963.86
2016-09-06T10:45:54.903Z,963.83
2016-09-06T10:46:54.586Z,963.85
2016-09-06T10:48:10.257Z,963.82
2016-09-06T10:48:40.959Z,963.82
2016-09-06T10:49:40.606Z,963.84
2016-09-06T10:50:51.546Z,963.84
2016-09-06T10:51:53.960Z,963.86
2016-09-06T10:52:39.000Z,963.80
2016-09-06T10:53:50.760Z,963.76
2016-09-06T10:54:45.715Z,963.83
2016-09-06T10:55:51.775Z,963.71
2016-09-06T10:56:40.425Z,963.70
2016-09-06T10:57:50.563Z,963.69
2016-09-06T10:59:00.393Z,963.67
2016-09-06T10:59:54.593Z,963.72
2016-09-06T11:01:00.242Z,963.64
2016-09-06T11:02:06.701Z,963.66
2016-09-06T11:02:57.043Z,963.65
2016-09-06T11:03:55.654Z,963.65
2016-09-06T11:04:49.098Z,963.67
2016-09-06T11:05:50.077Z,963.65
2016-09-06T11:06:54.692Z,963.68
2016-09-06T11:07:45.934Z,963.62
2016-09-06T11:08:54.057Z,963.61
2016-09-06T11:09:27.778Z,963.57
2016-09-06T11:10:38.066Z,963.59
2016-09-06T11:11:55.878Z,963.57
2016-09-06T11:12:49.791Z,963.56
2016-09-06T11:13:20.943Z,963.56
2016-09-06T11:14:44.085Z,963.58
2016-09-06T11:15:35.302Z,963.59
2016-09-06T11:16:53.945Z,963.57
2016-09-06T11:17:27.284Z,963.55
2016-09-06T11:18:25.313Z,963.55
2016-09-06T11:19:15.375Z,963.54
2016-09-06T11:20:38.261Z,963.56
2016-09-06T11:21:29.458Z,963.53
2016-09-06T11:22:38.909Z,963.58
2016-09-06T11:23:24.502Z,963.55
2016-09-06T11:24:41.029Z,963.58
2016-09-06T11:25:36.621Z,963.58
2016-09-06T11:26:35.676Z,963.62
2016-09-06T11:27:38.682Z,963.56
2016-09-06T11:28:55.259Z,963.57
2016-09-06T11:29:15.351Z,963.57
2016-09-06T11:30:47.881Z,963.55
2016-09-06T11:31:58.379Z,963.52
2016-09-06T11:32:48.408Z,963.59
2016-09-06T11:33:44.014Z,963.53
2016-09-06T11:34:47.563Z,963.57
2016-09-06T11:35:33.011Z,963.58
2016-09-06T11:36:38.300Z,963.59
2016-09-06T11:37:39.344Z,963.57
2016-09-06T11:38:39.453Z,963.57
2016-09-06T11:39:55.113Z,963.58
2016-09-06T11:40:17.410Z,963.61
2016-09-06T11:41:39.369Z,963.60
2016-09-06T11:42:48.500Z,963.55
2016-09-06T11:43:37.933Z,963.53
2016-09-06T11:44:26.178Z,963.54
2016-09-06T11:45:32.106Z,963.57
2016-09-06T11:46:49.751Z,963.58
2016-09-06T11:47:14.274Z,963.57
2016-09-06T11:48:36.206Z,963.57
2016-09-06T11:49:28.265Z,963.59
2016-09-06T11:50:36.674Z,963.56
2016-09-06T11:51:34.481Z,963.56
2016-09-06T11:52:32.761Z,963.53
2016-09-06T11:53:39.516Z,963.54
2016-09-06T11:54:50.566Z,963.55
2016-09-06T11:55:44.113Z,963.53
2016-09-06T11:56:49.881Z,963.54
2016-09-06T11:57:23.335Z,963.54
2016-09-06T11:58:13.666Z,963.51
2016-09-06T11:59:34.877Z,963.51
2016-09-06T12:00:37.075Z,963.51
2016-09-06T12:01:17.102Z,963.50
2016-09-06T12:02:40.009Z,963.55
2016-09-06T12:03:32.145Z,963.58
2016-09-06T12:04:39.110Z,963.54
2016-09-06T12:05:34.669Z,963.56
2016-09-06T12:06:47.564Z,963.54
2016-09-06T12:07:41.757Z,963.54
2016-09-06T12:08:26.660Z,963.47
2016-09-06T12:09:44.073Z,963.43
2016-09-06T12:10:15.770Z,963.44
2016-09-06T12:11:28.702Z,963.42
2016-09-06T12:12:22.379Z,963.50
2016-09-06T12:13:17.143Z,963.41
2016-09-06T12:14:33.330Z,963.35
2016-09-06T12:15:38.545Z,963.36
2016-09-06T12:16:34.154Z,963.34
2016-09-06T12:17:23.790Z,963.31
2016-09-06T12:18:49.391Z,963.40
2016-09-06T12:19:39.499Z,963.39
2016-09-06T12:20:17.124Z,963.39
2016-09-06T12:21:39.527Z,963.38
2016-09-06T12:22:39.596Z,963.41
2016-09-06T12:23:49.579Z,963.45
2016-09-06T12:24:44.448Z,963.41
2016-09-06T12:25:34.341Z,963.44
2016-09-06T12:26:50.698Z,963.41
2016-09-06T12:27:39.393Z,963.41
2016-09-06T12:28:40.545Z,963.38
2016-09-06T12:29:55.744Z,963.38
2016-09-06T12:30:54.456Z,963.35
2016-09-06T12:31:44.516Z,963.33